KGSP/GSP METAR and TAF weather

Enter ICAO airport designator
Station Type Date Time Source
KGSP METAR 2022/06/25 21:53 UTC NOAA

KGSP 252153Z 17005KT 10SM CLR 29/17 A3011 RMK AO2 SLP185 T02890167


Station Type Date Time Source
KGSP Decoded METAR 2022/06/25 21:53 UTC NOAA

GREER GREENVILLE SPARTBURG, SC, United States (KGSP) 34-53N 82-13W 286M
Jun 25, 2022 - 05:53 PM EDT / 2022.06.25 2153 UTC
Wind: from the S (170 degrees) at 6 MPH (5 KT):0
Visibility: 10 mile(s):0
Sky conditions: clear
Temperature: 84.0 F (28.9 C)
Dew Point: 62.1 F (16.7 C)
Relative Humidity: 47%
Pressure (altimeter): 30.11 in. Hg (1019 hPa)
ob: KGSP 252153Z 17005KT 10SM CLR 29/17 A3011 RMK AO2 SLP185 T02890167
cycle: 22

Station Type Date Time Source
KGSP TAF 2022/06/25 18:33 UTC NOAA

TAF KGSP 251730Z 2518/2618 33003KT P6SM OVC090
FM260000 11003KT P6SM BKN080
FM261100 19003KT P6SM FEW070
FM261500 22006KT P6SM SCT060

Example: see airport list